sensor_id;sensor_type;location;lat;lon;timestamp;pressure;altitude;pressure_sealevel;temperature;humidity
11952;BME280;6036;41.840;23.486;2022-08-19T00:00:31;90483.91;;;23.64;45.12
11952;BME280;6036;41.840;23.486;2022-08-19T00:02:57;90484.91;;;23.70;44.99
11952;BME280;6036;41.840;23.486;2022-08-19T00:05:22;90483.56;;;23.62;45.09
11952;BME280;6036;41.840;23.486;2022-08-19T00:07:48;90484.44;;;23.56;44.85
11952;BME280;6036;41.840;23.486;2022-08-19T00:10:16;90482.81;;;23.62;45.63
11952;BME280;6036;41.840;23.486;2022-08-19T00:12:42;90478.91;;;23.66;44.60
11952;BME280;6036;41.840;23.486;2022-08-19T00:15:11;90464.25;;;23.31;45.80
11952;BME280;6036;41.840;23.486;2022-08-19T00:17:44;90464.56;;;23.37;45.84
11952;BME280;6036;41.840;23.486;2022-08-19T00:20:14;90460.75;;;23.58;45.43
11952;BME280;6036;41.840;23.486;2022-08-19T00:22:42;90460.47;;;23.72;44.23
11952;BME280;6036;41.840;23.486;2022-08-19T00:25:08;90449.38;;;23.54;44.78
11952;BME280;6036;41.840;23.486;2022-08-19T00:27:34;90445.47;;;23.58;44.94
11952;BME280;6036;41.840;23.486;2022-08-19T00:29:59;90450.06;;;23.58;45.01
11952;BME280;6036;41.840;23.486;2022-08-19T00:32:25;90437.78;;;23.80;44.79
11952;BME280;6036;41.840;23.486;2022-08-19T00:34:51;90439.13;;;23.88;44.85
11952;BME280;6036;41.840;23.486;2022-08-19T00:37:18;90440.56;;;23.73;44.29
11952;BME280;6036;41.840;23.486;2022-08-19T00:39:44;90439.09;;;23.72;44.61
11952;BME280;6036;41.840;23.486;2022-08-19T00:42:10;90438.88;;;23.63;44.38
11952;BME280;6036;41.840;23.486;2022-08-19T00:44:35;90447.41;;;23.58;44.67
11952;BME280;6036;41.840;23.486;2022-08-19T00:47:01;90447.38;;;23.77;44.65
11952;BME280;6036;41.840;23.486;2022-08-19T00:49:28;90458.56;;;23.72;44.97
11952;BME280;6036;41.840;23.486;2022-08-19T00:51:59;90462.09;;;23.46;45.22
11952;BME280;6036;41.840;23.486;2022-08-19T00:54:25;90461.72;;;23.24;45.75
11952;BME280;6036;41.840;23.486;2022-08-19T00:56:52;90443.16;;;23.17;45.95
11952;BME280;6036;41.840;23.486;2022-08-19T00:59:18;90424.16;;;22.92;46.46
11952;BME280;6036;41.840;23.486;2022-08-19T01:01:45;90428.75;;;22.92;46.95
11952;BME280;6036;41.840;23.486;2022-08-19T01:04:11;90415.94;;;22.60;47.38
11952;BME280;6036;41.840;23.486;2022-08-19T01:06:38;90421.56;;;22.89;46.70
11952;BME280;6036;41.840;23.486;2022-08-19T01:09:06;90418.84;;;23.12;46.07
11952;BME280;6036;41.840;23.486;2022-08-19T01:11:35;90422.00;;;23.07;46.57
11952;BME280;6036;41.840;23.486;2022-08-19T01:14:01;90434.88;;;23.31;45.50
11952;BME280;6036;41.840;23.486;2022-08-19T01:16:28;90423.88;;;23.29;45.75
11952;BME280;6036;41.840;23.486;2022-08-19T01:18:55;90437.06;;;23.17;46.11
11952;BME280;6036;41.840;23.486;2022-08-19T01:23:56;90445.72;;;22.55;47.39
11952;BME280;6036;41.840;23.486;2022-08-19T01:26:24;90457.00;;;22.89;46.94
11952;BME280;6036;41.840;23.486;2022-08-19T01:28:53;90454.59;;;23.18;46.45
11952;BME280;6036;41.840;23.486;2022-08-19T01:31:24;90455.59;;;23.04;46.40
11952;BME280;6036;41.840;23.486;2022-08-19T01:33:51;90459.94;;;23.18;46.21
11952;BME280;6036;41.840;23.486;2022-08-19T01:36:33;90465.25;;;22.98;46.25
11952;BME280;6036;41.840;23.486;2022-08-19T01:39:03;90462.00;;;22.87;46.45
11952;BME280;6036;41.840;23.486;2022-08-19T01:41:28;90447.16;;;22.63;47.03
11952;BME280;6036;41.840;23.486;2022-08-19T01:43:54;90452.84;;;22.38;47.66
11952;BME280;6036;41.840;23.486;2022-08-19T01:46:21;90443.94;;;22.48;48.14
11952;BME280;6036;41.840;23.486;2022-08-19T01:48:47;90444.25;;;22.54;47.79
11952;BME280;6036;41.840;23.486;2022-08-19T01:51:13;90440.06;;;22.53;47.83
11952;BME280;6036;41.840;23.486;2022-08-19T01:53:40;90451.31;;;22.41;47.77
11952;BME280;6036;41.840;23.486;2022-08-19T01:56:06;90453.72;;;22.32;48.25
11952;BME280;6036;41.840;23.486;2022-08-19T01:58:36;90437.88;;;22.21;48.43
11952;BME280;6036;41.840;23.486;2022-08-19T02:01:05;90433.25;;;22.25;48.49
11952;BME280;6036;41.840;23.486;2022-08-19T02:03:30;90436.78;;;22.42;47.96
11952;BME280;6036;41.840;23.486;2022-08-19T02:05:58;90436.50;;;22.59;47.25
11952;BME280;6036;41.840;23.486;2022-08-19T02:08:28;90436.84;;;22.65;47.57
11952;BME280;6036;41.840;23.486;2022-08-19T02:10:54;90436.06;;;22.64;47.38
11952;BME280;6036;41.840;23.486;2022-08-19T02:13:20;90427.31;;;22.87;46.95
11952;BME280;6036;41.840;23.486;2022-08-19T02:15:46;90427.78;;;22.82;46.63
11952;BME280;6036;41.840;23.486;2022-08-19T02:18:12;90424.63;;;22.41;47.84
11952;BME280;6036;41.840;23.486;2022-08-19T02:20:40;90444.09;;;22.38;47.75
11952;BME280;6036;41.840;23.486;2022-08-19T02:23:06;90442.88;;;22.19;48.21
11952;BME280;6036;41.840;23.486;2022-08-19T02:25:32;90451.59;;;22.20;48.31
11952;BME280;6036;41.840;23.486;2022-08-19T02:27:58;90445.22;;;22.40;48.16
11952;BME280;6036;41.840;23.486;2022-08-19T02:30:23;90443.31;;;22.14;49.14
11952;BME280;6036;41.840;23.486;2022-08-19T02:32:50;90437.34;;;22.07;48.82
11952;BME280;6036;41.840;23.486;2022-08-19T02:35:16;90442.06;;;21.95;49.49
11952;BME280;6036;41.840;23.486;2022-08-19T02:37:43;90446.09;;;22.07;49.13
11952;BME280;6036;41.840;23.486;2022-08-19T02:40:28;90440.34;;;21.78;49.83
11952;BME280;6036;41.840;23.486;2022-08-19T02:42:53;90434.41;;;21.97;48.96
11952;BME280;6036;41.840;23.486;2022-08-19T02:45:19;90440.34;;;22.09;49.47
11952;BME280;6036;41.840;23.486;2022-08-19T02:47:45;90434.25;;;22.08;48.99
11952;BME280;6036;41.840;23.486;2022-08-19T02:50:10;90436.13;;;21.81;49.35
11952;BME280;6036;41.840;23.486;2022-08-19T02:52:36;90433.25;;;21.68;49.97
11952;BME280;6036;41.840;23.486;2022-08-19T02:55:02;90434.97;;;21.55;50.59
11952;BME280;6036;41.840;23.486;2022-08-19T02:57:27;90433.09;;;21.82;49.43
11952;BME280;6036;41.840;23.486;2022-08-19T02:59:53;90442.31;;;21.74;49.75
11952;BME280;6036;41.840;23.486;2022-08-19T03:02:19;90441.00;;;21.89;49.43
11952;BME280;6036;41.840;23.486;2022-08-19T03:04:45;90437.25;;;21.83;49.04
11952;BME280;6036;41.840;23.486;2022-08-19T03:07:13;90430.34;;;21.59;49.61
11952;BME280;6036;41.840;23.486;2022-08-19T03:09:39;90442.47;;;21.30;50.71
11952;BME280;6036;41.840;23.486;2022-08-19T03:12:05;90441.53;;;21.47;50.60
11952;BME280;6036;41.840;23.486;2022-08-19T03:14:31;90445.53;;;21.62;50.02
11952;BME280;6036;41.840;23.486;2022-08-19T03:16:57;90447.03;;;21.33;50.75
11952;BME280;6036;41.840;23.486;2022-08-19T03:19:23;90456.47;;;21.37;50.52
11952;BME280;6036;41.840;23.486;2022-08-19T03:21:49;90458.69;;;21.43;50.45
11952;BME280;6036;41.840;23.486;2022-08-19T03:24:15;90460.69;;;21.35;50.92
11952;BME280;6036;41.840;23.486;2022-08-19T03:26:45;90455.94;;;21.50;50.75
11952;BME280;6036;41.840;23.486;2022-08-19T03:29:11;90464.34;;;21.78;50.11
11952;BME280;6036;41.840;23.486;2022-08-19T03:31:38;90464.63;;;21.54;50.66
11952;BME280;6036;41.840;23.486;2022-08-19T03:34:04;90460.59;;;21.42;51.29
11952;BME280;6036;41.840;23.486;2022-08-19T03:36:30;90454.84;;;21.47;51.13
11952;BME280;6036;41.840;23.486;2022-08-19T03:38:59;90460.25;;;21.40;51.12
11952;BME280;6036;41.840;23.486;2022-08-19T03:41:31;90465.88;;;21.12;52.63
11952;BME280;6036;41.840;23.486;2022-08-19T03:43:57;90467.41;;;21.09;52.50
11952;BME280;6036;41.840;23.486;2022-08-19T03:46:26;90465.84;;;21.15;51.84
11952;BME280;6036;41.840;23.486;2022-08-19T03:48:54;90473.00;;;21.22;51.54
11952;BME280;6036;41.840;23.486;2022-08-19T03:51:40;90466.63;;;21.46;50.96
11952;BME280;6036;41.840;23.486;2022-08-19T03:54:10;90463.00;;;21.33;51.63
11952;BME280;6036;41.840;23.486;2022-08-19T03:56:37;90464.28;;;21.18;51.51
11952;BME280;6036;41.840;23.486;2022-08-19T03:59:05;90471.25;;;21.05;52.06
11952;BME280;6036;41.840;23.486;2022-08-19T04:01:31;90467.59;;;21.29;51.29
11952;BME280;6036;41.840;23.486;2022-08-19T04:03:58;90468.97;;;21.40;50.98
11952;BME280;6036;41.840;23.486;2022-08-19T04:06:32;90471.69;;;21.37;50.77
11952;BME280;6036;41.840;23.486;2022-08-19T04:09:02;90470.44;;;21.11;51.31
11952;BME280;6036;41.840;23.486;2022-08-19T04:11:31;90475.84;;;21.01;51.98
11952;BME280;6036;41.840;23.486;2022-08-19T04:13:57;90469.72;;;21.04;51.85
11952;BME280;6036;41.840;23.486;2022-08-19T04:16:25;90468.69;;;21.31;51.18
11952;BME280;6036;41.840;23.486;2022-08-19T04:18:55;90475.19;;;21.61;50.42
11952;BME280;6036;41.840;23.486;2022-08-19T04:21:24;90486.19;;;21.66;50.45
11952;BME280;6036;41.840;23.486;2022-08-19T04:23:50;90484.69;;;21.95;49.35
11952;BME280;6036;41.840;23.486;2022-08-19T04:26:19;90487.13;;;22.13;48.82
11952;BME280;6036;41.840;23.486;2022-08-19T04:28:46;90487.31;;;22.26;48.36
11952;BME280;6036;41.840;23.486;2022-08-19T04:31:21;90486.72;;;22.41;48.41
11952;BME280;6036;41.840;23.486;2022-08-19T04:33:46;90493.16;;;22.44;47.94
11952;BME280;6036;41.840;23.486;2022-08-19T04:36:24;90494.75;;;22.38;48.44
11952;BME280;6036;41.840;23.486;2022-08-19T04:38:55;90496.00;;;22.30;48.99
11952;BME280;6036;41.840;23.486;2022-08-19T04:41:20;90501.56;;;22.69;47.73
11952;BME280;6036;41.840;23.486;2022-08-19T04:44:04;90481.09;;;22.86;47.61
11952;BME280;6036;41.840;23.486;2022-08-19T04:46:30;90487.75;;;22.97;47.27
11952;BME280;6036;41.840;23.486;2022-08-19T04:48:58;90486.03;;;23.10;46.75
11952;BME280;6036;41.840;23.486;2022-08-19T04:51:24;90477.72;;;23.05;46.88
11952;BME280;6036;41.840;23.486;2022-08-19T04:53:50;90479.81;;;22.71;47.71
11952;BME280;6036;41.840;23.486;2022-08-19T04:56:18;90478.91;;;22.54;48.00
11952;BME280;6036;41.840;23.486;2022-08-19T04:58:46;90466.78;;;22.23;49.23
11952;BME280;6036;41.840;23.486;2022-08-19T05:01:19;90468.72;;;22.49;49.40
11952;BME280;6036;41.840;23.486;2022-08-19T05:03:45;90463.47;;;22.42;49.29
11952;BME280;6036;41.840;23.486;2022-08-19T05:06:13;90472.31;;;22.62;48.88
11952;BME280;6036;41.840;23.486;2022-08-19T05:08:40;90464.38;;;22.82;48.48
11952;BME280;6036;41.840;23.486;2022-08-19T05:11:17;90479.28;;;23.02;48.30
11952;BME280;6036;41.840;23.486;2022-08-19T05:13:44;90478.94;;;23.00;48.02
11952;BME280;6036;41.840;23.486;2022-08-19T05:16:11;90478.00;;;22.87;48.33
11952;BME280;6036;41.840;23.486;2022-08-19T05:18:37;90487.91;;;23.33;47.66
11952;BME280;6036;41.840;23.486;2022-08-19T05:21:21;90488.47;;;23.83;46.27
11952;BME280;6036;41.840;23.486;2022-08-19T05:24:06;90488.47;;;23.83;46.01
11952;BME280;6036;41.840;23.486;2022-08-19T05:26:39;90501.03;;;23.67;46.66
11952;BME280;6036;41.840;23.486;2022-08-19T05:29:06;90505.00;;;23.59;46.36
11952;BME280;6036;41.840;23.486;2022-08-19T05:31:32;90505.09;;;23.75;46.13
11952;BME280;6036;41.840;23.486;2022-08-19T05:33:58;90495.53;;;24.13;44.86
11952;BME280;6036;41.840;23.486;2022-08-19T05:36:27;90501.31;;;24.64;43.55
11952;BME280;6036;41.840;23.486;2022-08-19T05:38:53;90501.41;;;24.92;43.65
11952;BME280;6036;41.840;23.486;2022-08-19T05:41:20;90499.16;;;25.23;43.12
11952;BME280;6036;41.840;23.486;2022-08-19T05:43:46;90497.53;;;25.70;41.92
11952;BME280;6036;41.840;23.486;2022-08-19T05:46:19;90499.00;;;26.00;40.92
11952;BME280;6036;41.840;23.486;2022-08-19T05:48:45;90492.47;;;26.55;40.32
11952;BME280;6036;41.840;23.486;2022-08-19T05:51:11;90490.22;;;26.41;40.37
11952;BME280;6036;41.840;23.486;2022-08-19T05:53:36;90492.34;;;26.46;40.30
11952;BME280;6036;41.840;23.486;2022-08-19T05:56:13;90483.56;;;26.45;39.79
11952;BME280;6036;41.840;23.486;2022-08-19T05:58:44;90489.25;;;26.85;39.45
11952;BME280;6036;41.840;23.486;2022-08-19T06:01:16;90487.31;;;26.98;39.02
11952;BME280;6036;41.840;23.486;2022-08-19T06:03:41;90489.00;;;27.18;38.60
11952;BME280;6036;41.840;23.486;2022-08-19T06:06:08;90498.34;;;27.13;38.90
11952;BME280;6036;41.840;23.486;2022-08-19T06:08:35;90492.56;;;27.02;39.68
11952;BME280;6036;41.840;23.486;2022-08-19T06:13:46;90479.06;;;27.40;39.79
11952;BME280;6036;41.840;23.486;2022-08-19T06:16:13;90480.13;;;27.42;39.43
11952;BME280;6036;41.840;23.486;2022-08-19T06:18:45;90485.91;;;28.09;38.96
11952;BME280;6036;41.840;23.486;2022-08-19T06:21:11;90483.69;;;28.48;37.37
11952;BME280;6036;41.840;23.486;2022-08-19T06:23:36;90479.28;;;28.93;36.68
11952;BME280;6036;41.840;23.486;2022-08-19T06:26:01;90481.22;;;29.02;36.21
11952;BME280;6036;41.840;23.486;2022-08-19T06:28:27;90477.59;;;28.87;36.66
11952;BME280;6036;41.840;23.486;2022-08-19T06:30:52;90485.78;;;28.74;37.13
11952;BME280;6036;41.840;23.486;2022-08-19T06:33:18;90487.63;;;28.56;37.20
11952;BME280;6036;41.840;23.486;2022-08-19T06:35:43;90480.66;;;29.07;35.74
11952;BME280;6036;41.840;23.486;2022-08-19T06:38:09;90491.53;;;29.43;35.91
11952;BME280;6036;41.840;23.486;2022-08-19T06:40:35;90488.69;;;29.56;36.04
11952;BME280;6036;41.840;23.486;2022-08-19T06:43:01;90495.09;;;30.49;34.00
11952;BME280;6036;41.840;23.486;2022-08-19T06:45:28;90487.44;;;30.57;33.21
11952;BME280;6036;41.840;23.486;2022-08-19T06:47:53;90488.41;;;31.19;33.29
11952;BME280;6036;41.840;23.486;2022-08-19T06:50:23;90497.06;;;31.32;32.03
11952;BME280;6036;41.840;23.486;2022-08-19T06:52:48;90482.84;;;31.23;32.25
11952;BME280;6036;41.840;23.486;2022-08-19T06:55:14;90488.09;;;30.84;32.32
11952;BME280;6036;41.840;23.486;2022-08-19T06:57:41;90489.63;;;31.42;32.11
11952;BME280;6036;41.840;23.486;2022-08-19T07:00:08;90487.50;;;31.22;32.17
11952;BME280;6036;41.840;23.486;2022-08-19T07:02:40;90484.34;;;31.71;31.42
11952;BME280;6036;41.840;23.486;2022-08-19T07:05:06;90482.97;;;32.29;30.36
11952;BME280;6036;41.840;23.486;2022-08-19T07:07:32;90486.72;;;32.17;30.34
11952;BME280;6036;41.840;23.486;2022-08-19T07:09:58;90482.03;;;33.05;29.47
11952;BME280;6036;41.840;23.486;2022-08-19T07:12:23;90481.47;;;32.42;29.45
11952;BME280;6036;41.840;23.486;2022-08-19T07:14:48;90487.25;;;32.21;30.48
11952;BME280;6036;41.840;23.486;2022-08-19T07:17:14;90476.25;;;32.24;30.57
11952;BME280;6036;41.840;23.486;2022-08-19T07:19:40;90486.81;;;32.95;30.17
11952;BME280;6036;41.840;23.486;2022-08-19T07:22:08;90484.41;;;32.68;30.35
11952;BME280;6036;41.840;23.486;2022-08-19T07:24:34;90482.81;;;32.76;29.57
11952;BME280;6036;41.840;23.486;2022-08-19T07:27:00;90481.38;;;33.45;28.80
11952;BME280;6036;41.840;23.486;2022-08-19T07:29:27;90488.94;;;33.20;29.61
11952;BME280;6036;41.840;23.486;2022-08-19T07:31:54;90488.19;;;33.95;29.58
11952;BME280;6036;41.840;23.486;2022-08-19T07:34:25;90488.94;;;33.75;28.43
11952;BME280;6036;41.840;23.486;2022-08-19T07:36:51;90491.50;;;34.25;28.40
11952;BME280;6036;41.840;23.486;2022-08-19T07:39:21;90491.25;;;34.48;27.36
11952;BME280;6036;41.840;23.486;2022-08-19T07:41:47;90494.63;;;34.95;27.50
11952;BME280;6036;41.840;23.486;2022-08-19T07:44:14;90492.25;;;35.39;25.42
11952;BME280;6036;41.840;23.486;2022-08-19T07:46:43;90489.22;;;35.68;25.66
11952;BME280;6036;41.840;23.486;2022-08-19T07:49:10;90501.56;;;36.12;24.52
11952;BME280;6036;41.840;23.486;2022-08-19T07:52:06;90502.78;;;36.97;24.76
11952;BME280;6036;41.840;23.486;2022-08-19T07:54:31;90504.44;;;37.95;22.97
11952;BME280;6036;41.840;23.486;2022-08-19T07:57:00;90500.97;;;38.92;21.80
11952;BME280;6036;41.840;23.486;2022-08-19T07:59:27;90502.03;;;38.84;21.72
11952;BME280;6036;41.840;23.486;2022-08-19T08:01:53;90494.81;;;37.44;22.56
11952;BME280;6036;41.840;23.486;2022-08-19T08:04:19;90498.78;;;37.54;23.17
11952;BME280;6036;41.840;23.486;2022-08-19T08:07:05;90488.63;;;38.34;22.61
11952;BME280;6036;41.840;23.486;2022-08-19T08:09:49;90498.50;;;37.68;22.83
11952;BME280;6036;41.840;23.486;2022-08-19T08:12:18;90492.25;;;37.90;23.77
11952;BME280;6036;41.840;23.486;2022-08-19T08:14:48;90489.41;;;38.18;22.34
11952;BME280;6036;41.840;23.486;2022-08-19T08:17:16;90491.56;;;36.84;22.94
11952;BME280;6036;41.840;23.486;2022-08-19T08:19:43;90497.25;;;37.75;22.38
11952;BME280;6036;41.840;23.486;2022-08-19T08:22:10;90486.19;;;38.19;23.19
11952;BME280;6036;41.840;23.486;2022-08-19T08:24:56;90485.88;;;39.16;21.81
11952;BME280;6036;41.840;23.486;2022-08-19T08:27:24;90488.03;;;39.28;21.23
11952;BME280;6036;41.840;23.486;2022-08-19T08:29:49;90483.47;;;39.66;21.69
11952;BME280;6036;41.840;23.486;2022-08-19T08:32:15;90480.13;;;39.19;19.71
11952;BME280;6036;41.840;23.486;2022-08-19T08:34:40;90478.09;;;37.92;21.12
11952;BME280;6036;41.840;23.486;2022-08-19T08:37:06;90473.44;;;38.38;21.64
11952;BME280;6036;41.840;23.486;2022-08-19T08:39:31;90472.06;;;38.97;21.67
11952;BME280;6036;41.840;23.486;2022-08-19T08:42:14;90466.25;;;39.65;21.08
11952;BME280;6036;41.840;23.486;2022-08-19T08:45:05;90478.69;;;39.72;20.24
11952;BME280;6036;41.840;23.486;2022-08-19T08:47:35;90464.28;;;38.71;21.20
11952;BME280;6036;41.840;23.486;2022-08-19T08:50:09;90464.38;;;39.31;20.82
11952;BME280;6036;41.840;23.486;2022-08-19T08:52:44;90462.91;;;39.78;20.76
11952;BME280;6036;41.840;23.486;2022-08-19T08:55:16;90460.38;;;39.56;19.66
11952;BME280;6036;41.840;23.486;2022-08-19T09:00:30;90446.53;;;38.48;21.25
11952;BME280;6036;41.840;23.486;2022-08-19T09:02:57;90454.81;;;39.08;20.54
11952;BME280;6036;41.840;23.486;2022-08-19T09:05:30;90446.63;;;39.37;19.83
11952;BME280;6036;41.840;23.486;2022-08-19T09:08:28;90459.03;;;39.38;19.64
11952;BME280;6036;41.840;23.486;2022-08-19T09:10:53;90448.09;;;39.38;17.87
11952;BME280;6036;41.840;23.486;2022-08-19T09:16:00;90446.41;;;39.35;19.55
11952;BME280;6036;41.840;23.486;2022-08-19T09:18:39;90437.59;;;39.13;20.29
11952;BME280;6036;41.840;23.486;2022-08-19T09:21:04;90446.84;;;39.88;19.64
11952;BME280;6036;41.840;23.486;2022-08-19T09:23:30;90436.69;;;40.25;20.16
11952;BME280;6036;41.840;23.486;2022-08-19T09:25:55;90436.84;;;39.12;20.09
11952;BME280;6036;41.840;23.486;2022-08-19T09:28:21;90432.91;;;39.37;17.40
11952;BME280;6036;41.840;23.486;2022-08-19T09:30:46;90433.16;;;39.39;19.48
11952;BME280;6036;41.840;23.486;2022-08-19T09:33:11;90425.84;;;38.53;21.29
11952;BME280;6036;41.840;23.486;2022-08-19T09:35:37;90426.06;;;38.60;22.21
11952;BME280;6036;41.840;23.486;2022-08-19T09:38:02;90421.63;;;38.05;21.64
11952;BME280;6036;41.840;23.486;2022-08-19T09:40:29;90420.34;;;38.93;20.75
11952;BME280;6036;41.840;23.486;2022-08-19T09:42:54;90420.06;;;38.97;17.59
11952;BME280;6036;41.840;23.486;2022-08-19T09:45:22;90415.13;;;39.25;19.30
11952;BME280;6036;41.840;23.486;2022-08-19T09:47:51;90415.97;;;39.39;18.80
11952;BME280;6036;41.840;23.486;2022-08-19T09:50:17;90420.00;;;39.81;17.39
11952;BME280;6036;41.840;23.486;2022-08-19T09:52:44;90417.63;;;39.72;17.55
11952;BME280;6036;41.840;23.486;2022-08-19T09:55:10;90408.28;;;38.78;19.83
11952;BME280;6036;41.840;23.486;2022-08-19T09:57:37;90401.91;;;38.29;17.82
11952;BME280;6036;41.840;23.486;2022-08-19T10:00:07;90408.28;;;38.78;18.37
11952;BME280;6036;41.840;23.486;2022-08-19T10:02:33;90398.78;;;39.38;18.96
11952;BME280;6036;41.840;23.486;2022-08-19T10:04:58;90403.50;;;39.68;19.07
11952;BME280;6036;41.840;23.486;2022-08-19T10:07:43;90392.84;;;38.45;20.02
11952;BME280;6036;41.840;23.486;2022-08-19T10:10:08;90391.41;;;37.87;21.06
11952;BME280;6036;41.840;23.486;2022-08-19T10:12:35;90390.53;;;37.56;18.95
11952;BME280;6036;41.840;23.486;2022-08-19T10:15:01;90384.59;;;37.36;21.27
11952;BME280;6036;41.840;23.486;2022-08-19T10:17:27;90377.19;;;37.31;19.75
11952;BME280;6036;41.840;23.486;2022-08-19T10:19:53;90383.19;;;37.01;21.73
11952;BME280;6036;41.840;23.486;2022-08-19T10:22:19;90392.63;;;36.95;22.00
11952;BME280;6036;41.840;23.486;2022-08-19T10:24:48;90386.66;;;37.07;21.08
11952;BME280;6036;41.840;23.486;2022-08-19T10:27:14;90385.44;;;37.03;21.00
11952;BME280;6036;41.840;23.486;2022-08-19T10:29:41;90379.22;;;37.02;19.02
11952;BME280;6036;41.840;23.486;2022-08-19T10:32:08;90384.44;;;36.84;23.10
11952;BME280;6036;41.840;23.486;2022-08-19T10:34:37;90377.94;;;36.15;23.89
11952;BME280;6036;41.840;23.486;2022-08-19T10:37:04;90378.25;;;36.50;22.04
11952;BME280;6036;41.840;23.486;2022-08-19T10:39:35;90374.19;;;37.40;21.86
11952;BME280;6036;41.840;23.486;2022-08-19T10:42:10;90370.97;;;37.41;21.86
11952;BME280;6036;41.840;23.486;2022-08-19T10:44:35;90372.28;;;36.90;21.90
11952;BME280;6036;41.840;23.486;2022-08-19T10:47:02;90379.94;;;36.42;22.70
11952;BME280;6036;41.840;23.486;2022-08-19T10:49:28;90379.09;;;35.75;23.91
11952;BME280;6036;41.840;23.486;2022-08-19T10:51:55;90377.66;;;35.32;25.41
11952;BME280;6036;41.840;23.486;2022-08-19T10:54:39;90375.13;;;35.22;25.41
11952;BME280;6036;41.840;23.486;2022-08-19T10:57:23;90374.47;;;35.44;25.50
11952;BME280;6036;41.840;23.486;2022-08-19T10:59:55;90378.97;;;35.47;24.03
11952;BME280;6036;41.840;23.486;2022-08-19T11:02:21;90367.88;;;34.40;26.53
11952;BME280;6036;41.840;23.486;2022-08-19T11:04:47;90374.22;;;34.57;26.47
11952;BME280;6036;41.840;23.486;2022-08-19T11:07:15;90370.03;;;34.62;26.75
11952;BME280;6036;41.840;23.486;2022-08-19T11:09:41;90356.75;;;34.38;26.73
11952;BME280;6036;41.840;23.486;2022-08-19T11:12:07;90357.34;;;34.85;25.58
11952;BME280;6036;41.840;23.486;2022-08-19T11:14:34;90353.09;;;34.78;26.29
11952;BME280;6036;41.840;23.486;2022-08-19T11:17:01;90351.69;;;34.00;27.68
11952;BME280;6036;41.840;23.486;2022-08-19T11:19:27;90352.47;;;33.75;27.41
11952;BME280;6036;41.840;23.486;2022-08-19T11:21:53;90348.97;;;34.00;28.05
11952;BME280;6036;41.840;23.486;2022-08-19T11:24:24;90350.69;;;33.52;28.40
11952;BME280;6036;41.840;23.486;2022-08-19T11:26:53;90350.16;;;33.93;27.16
11952;BME280;6036;41.840;23.486;2022-08-19T11:29:22;90343.91;;;33.01;28.77
11952;BME280;6036;41.840;23.486;2022-08-19T11:31:50;90346.19;;;33.03;28.73
11952;BME280;6036;41.840;23.486;2022-08-19T11:34:24;90338.66;;;33.12;28.65
11952;BME280;6036;41.840;23.486;2022-08-19T11:36:52;90340.28;;;33.24;28.29
11952;BME280;6036;41.840;23.486;2022-08-19T11:39:20;90333.50;;;33.14;28.88
11952;BME280;6036;41.840;23.486;2022-08-19T11:41:46;90328.47;;;33.27;27.83
11952;BME280;6036;41.840;23.486;2022-08-19T11:44:11;90334.66;;;33.28;28.36
11952;BME280;6036;41.840;23.486;2022-08-19T11:46:39;90330.78;;;33.14;28.66
11952;BME280;6036;41.840;23.486;2022-08-19T11:49:06;90335.63;;;32.90;29.63
11952;BME280;6036;41.840;23.486;2022-08-19T11:51:34;90321.22;;;32.29;28.22
11952;BME280;6036;41.840;23.486;2022-08-19T11:54:00;90326.78;;;32.40;29.74
11952;BME280;6036;41.840;23.486;2022-08-19T11:56:27;90316.91;;;32.23;30.26
11952;BME280;6036;41.840;23.486;2022-08-19T11:58:53;90327.28;;;31.95;29.67
11952;BME280;6036;41.840;23.486;2022-08-19T12:01:21;90321.03;;;31.89;31.37
11952;BME280;6036;41.840;23.486;2022-08-19T12:03:49;90321.25;;;32.14;30.59
11952;BME280;6036;41.840;23.486;2022-08-19T12:06:18;90318.59;;;31.47;31.75
11952;BME280;6036;41.840;23.486;2022-08-19T12:08:45;90312.16;;;31.21;32.09
11952;BME280;6036;41.840;23.486;2022-08-19T12:11:13;90316.00;;;31.29;30.61
11952;BME280;6036;41.840;23.486;2022-08-19T12:13:39;90308.25;;;31.60;31.24
11952;BME280;6036;41.840;23.486;2022-08-19T12:16:09;90305.91;;;31.53;30.63
11952;BME280;6036;41.840;23.486;2022-08-19T12:18:38;90302.00;;;31.54;31.22
11952;BME280;6036;41.840;23.486;2022-08-19T12:21:04;90299.38;;;31.89;30.50
11952;BME280;6036;41.840;23.486;2022-08-19T12:23:29;90298.81;;;31.70;31.23
11952;BME280;6036;41.840;23.486;2022-08-19T12:25:55;90300.13;;;31.60;30.70
11952;BME280;6036;41.840;23.486;2022-08-19T12:28:24;90291.44;;;31.56;30.81
11952;BME280;6036;41.840;23.486;2022-08-19T12:30:51;90292.94;;;31.57;31.32
11952;BME280;6036;41.840;23.486;2022-08-19T12:33:17;90290.78;;;31.61;31.67
11952;BME280;6036;41.840;23.486;2022-08-19T12:35:45;90284.53;;;31.40;31.14
11952;BME280;6036;41.840;23.486;2022-08-19T12:38:13;90289.47;;;31.42;30.73
11952;BME280;6036;41.840;23.486;2022-08-19T12:40:39;90286.31;;;31.58;31.27
11952;BME280;6036;41.840;23.486;2022-08-19T12:43:06;90284.63;;;31.46;30.86
11952;BME280;6036;41.840;23.486;2022-08-19T12:45:32;90278.25;;;31.34;31.72
11952;BME280;6036;41.840;23.486;2022-08-19T12:47:58;90285.22;;;31.50;30.76
11952;BME280;6036;41.840;23.486;2022-08-19T12:50:24;90279.69;;;31.74;30.86
11952;BME280;6036;41.840;23.486;2022-08-19T12:52:50;90275.63;;;31.11;29.99
11952;BME280;6036;41.840;23.486;2022-08-19T12:55:16;90278.72;;;31.33;31.77
11952;BME280;6036;41.840;23.486;2022-08-19T12:57:44;90274.84;;;31.63;29.54
11952;BME280;6036;41.840;23.486;2022-08-19T13:00:13;90271.03;;;31.55;29.34
11952;BME280;6036;41.840;23.486;2022-08-19T13:02:44;90270.81;;;31.44;31.59
11952;BME280;6036;41.840;23.486;2022-08-19T13:05:13;90274.13;;;31.10;31.68
11952;BME280;6036;41.840;23.486;2022-08-19T13:07:40;90277.88;;;31.27;31.44
11952;BME280;6036;41.840;23.486;2022-08-19T13:10:07;90266.63;;;31.43;30.63
11952;BME280;6036;41.840;23.486;2022-08-19T13:12:33;90268.41;;;31.46;30.90
11952;BME280;6036;41.840;23.486;2022-08-19T13:14:58;90269.59;;;31.30;29.90